FIN7AT ESSA-EFHK
Flight info
| Callsign | FIN7AT |
|---|---|
| Flight time | 0h 39m |
| Altitude | 31000 |
| Route | TOVRI N851 RIKUM DCT RIRIP Y364 LAKUT |
| Aircraft | A319/M-SDE3FGHIRWY/LB1 |
Departure
| Time | 2026-04-23 18:22 |
|---|---|
| Airport | Stockholm-Arlanda Airport (ESSA) |
Arrival
| Time | 2026-04-23 19:02 |
|---|---|
| Airport | Helsinki Vantaa Airport (EFHK) |
| Time | Latitude | Longitude | Altitude | Speed | Heading |
|---|---|---|---|---|---|
| 2026-04-23 17:50 | 59.64430 | 17.92693 | 138 ft | 0 kts | 52° |
| 2026-04-23 18:07 | 59.64427 | 17.92685 | 138 ft | 4 kts | 52° |
| 2026-04-23 18:07 | 59.64411 | 17.92644 | 138 ft | 2 kts | 52° |
| 2026-04-23 18:07 | 59.64397 | 17.92610 | 138 ft | 4 kts | 52° |
| 2026-04-23 18:07 | 59.64380 | 17.92568 | 138 ft | 4 kts | 52° |
| 2026-04-23 18:08 | 59.64373 | 17.92549 | 138 ft | 4 kts | 52° |
| 2026-04-23 18:08 | 59.64367 | 17.92533 | 138 ft | 0 kts | 52° |
| 2026-04-23 18:11 | 59.64367 | 17.92536 | 138 ft | 0 kts | 65° |
| 2026-04-23 18:11 | 59.64366 | 17.92543 | 138 ft | 1 kts | 89° |
| 2026-04-23 18:11 | 59.64358 | 17.92545 | 138 ft | 1 kts | 171° |
| 2026-04-23 18:12 | 59.64340 | 17.92537 | 138 ft | 4 kts | 191° |
| 2026-04-23 18:12 | 59.64311 | 17.92524 | 138 ft | 5 kts | 192° |
| 2026-04-23 18:12 | 59.64274 | 17.92505 | 138 ft | 6 kts | 196° |
| 2026-04-23 18:12 | 59.64235 | 17.92461 | 138 ft | 7 kts | 227° |
| 2026-04-23 18:13 | 59.64233 | 17.92365 | 138 ft | 8 kts | 292° |
| 2026-04-23 18:13 | 59.64260 | 17.92259 | 138 ft | 9 kts | 297° |
| 2026-04-23 18:13 | 59.64292 | 17.92137 | 138 ft | 11 kts | 297° |
| 2026-04-23 18:13 | 59.64329 | 17.92001 | 138 ft | 12 kts | 298° |
| 2026-04-23 18:14 | 59.64395 | 17.91928 | 138 ft | 12 kts | 6° |
| 2026-04-23 18:14 | 59.64483 | 17.91959 | 138 ft | 14 kts | 10° |
| 2026-04-23 18:14 | 59.64581 | 17.91992 | 138 ft | 15 kts | 11° |
| 2026-04-23 18:14 | 59.64685 | 17.92032 | 138 ft | 16 kts | 11° |
| 2026-04-23 18:15 | 59.64797 | 17.92073 | 138 ft | 17 kts | 11° |
| 2026-04-23 18:15 | 59.64915 | 17.92115 | 138 ft | 18 kts | 10° |
| 2026-04-23 18:15 | 59.65040 | 17.92159 | 138 ft | 19 kts | 11° |
| 2026-04-23 18:15 | 59.65169 | 17.92206 | 138 ft | 19 kts | 10° |
| 2026-04-23 18:16 | 59.65303 | 17.92255 | 138 ft | 20 kts | 11° |
| 2026-04-23 18:16 | 59.65421 | 17.92336 | 138 ft | 18 kts | 41° |
| 2026-04-23 18:16 | 59.65509 | 17.92518 | 138 ft | 19 kts | 58° |
| 2026-04-23 18:17 | 59.65580 | 17.93012 | 138 ft | 19 kts | 76° |
| 2026-04-23 18:17 | 59.65615 | 17.93259 | 138 ft | 19 kts | 64° |
| 2026-04-23 18:17 | 59.65693 | 17.93429 | 138 ft | 14 kts | 45° |
| 2026-04-23 18:17 | 59.65748 | 17.93542 | 138 ft | 9 kts | 46° |
| 2026-04-23 18:18 | 59.65795 | 17.93638 | 138 ft | 10 kts | 45° |
| 2026-04-23 18:18 | 59.65845 | 17.93739 | 138 ft | 11 kts | 45° |
| 2026-04-23 18:18 | 59.65865 | 17.93805 | 137 ft | 0 kts | 74° |
| 2026-04-23 18:21 | 59.65883 | 17.93931 | 138 ft | 39 kts | 74° |
| 2026-04-23 18:21 | 59.66016 | 17.94970 | 136 ft | 113 kts | 76° |
| 2026-04-23 18:22 | 59.66250 | 17.96849 | 287 ft | 153 kts | 75° |
| 2026-04-23 18:22 | 59.66497 | 17.98833 | 967 ft | 146 kts | 72° |
| 2026-04-23 18:22 | 59.66736 | 18.00765 | 1662 ft | 144 kts | 69° |
| 2026-04-23 18:22 | 59.66979 | 18.02677 | 2291 ft | 143 kts | 68° |
| 2026-04-23 18:23 | 59.67138 | 18.03949 | 2693 ft | 145 kts | 69° |
| 2026-04-23 18:23 | 59.67753 | 18.09256 | 3549 ft | 196 kts | 70° |
| 2026-04-23 18:24 | 59.68411 | 18.15125 | 4381 ft | 241 kts | 71° |
| 2026-04-23 18:24 | 59.68789 | 18.18538 | 4933 ft | 265 kts | 72° |
| 2026-04-23 18:24 | 59.69179 | 18.22125 | 5768 ft | 274 kts | 72° |
| 2026-04-23 18:25 | 59.70446 | 18.29221 | 7649 ft | 275 kts | 58° |
| 2026-04-23 18:25 | 59.71289 | 18.32648 | 8654 ft | 277 kts | 58° |
| 2026-04-23 18:25 | 59.72133 | 18.36093 | 9657 ft | 279 kts | 58° |
| 2026-04-23 18:25 | 59.72995 | 18.39610 | 10373 ft | 292 kts | 58° |
| 2026-04-23 18:26 | 59.73923 | 18.43368 | 10723 ft | 314 kts | 58° |
| 2026-04-23 18:26 | 59.74895 | 18.47325 | 11403 ft | 323 kts | 58° |
| 2026-04-23 18:26 | 59.75870 | 18.51342 | 12189 ft | 328 kts | 58° |
| 2026-04-23 18:26 | 59.76861 | 18.55460 | 12981 ft | 333 kts | 58° |
| 2026-04-23 18:27 | 59.77863 | 18.59636 | 13762 ft | 338 kts | 58° |
| 2026-04-23 18:27 | 59.78881 | 18.63869 | 14450 ft | 341 kts | 58° |
| 2026-04-23 18:27 | 59.79907 | 18.68144 | 15177 ft | 344 kts | 57° |
| 2026-04-23 18:27 | 59.80942 | 18.72447 | 15944 ft | 346 kts | 57° |
| 2026-04-23 18:28 | 59.81981 | 18.76770 | 16704 ft | 348 kts | 57° |
| 2026-04-23 18:28 | 59.83029 | 18.81136 | 17424 ft | 350 kts | 57° |
| 2026-04-23 18:28 | 59.84080 | 18.85527 | 18138 ft | 353 kts | 57° |
| 2026-04-23 18:28 | 59.85134 | 18.89946 | 18763 ft | 355 kts | 57° |
| 2026-04-23 18:29 | 59.86193 | 18.94407 | 19371 ft | 358 kts | 56° |
| 2026-04-23 18:29 | 59.87246 | 18.98852 | 19990 ft | 360 kts | 56° |
| 2026-04-23 18:29 | 59.88318 | 19.03390 | 20616 ft | 363 kts | 56° |
| 2026-04-23 18:29 | 59.89397 | 19.07958 | 21226 ft | 365 kts | 56° |
| 2026-04-23 18:30 | 59.90112 | 19.10987 | 21625 ft | 367 kts | 56° |
| 2026-04-23 18:30 | 59.91199 | 19.15607 | 22235 ft | 369 kts | 56° |
| 2026-04-23 18:30 | 59.92295 | 19.20273 | 22834 ft | 372 kts | 56° |
| 2026-04-23 18:30 | 59.93400 | 19.24987 | 23459 ft | 375 kts | 55° |
| 2026-04-23 18:31 | 59.94508 | 19.29726 | 23931 ft | 378 kts | 55° |
| 2026-04-23 18:31 | 59.95621 | 19.34489 | 24393 ft | 380 kts | 55° |
| 2026-04-23 18:31 | 59.96736 | 19.39323 | 24845 ft | 386 kts | 57° |
| 2026-04-23 18:31 | 59.97569 | 19.44513 | 25275 ft | 399 kts | 66° |
| 2026-04-23 18:32 | 59.98217 | 19.49853 | 25697 ft | 402 kts | 66° |
| 2026-04-23 18:32 | 59.98882 | 19.55353 | 26133 ft | 405 kts | 66° |
| 2026-04-23 18:32 | 59.99535 | 19.60764 | 26546 ft | 407 kts | 66° |
| 2026-04-23 18:32 | 60.00200 | 19.66284 | 26958 ft | 410 kts | 66° |
| 2026-04-23 18:33 | 60.00869 | 19.71843 | 27357 ft | 413 kts | 66° |
| 2026-04-23 18:33 | 60.01542 | 19.77452 | 27765 ft | 415 kts | 66° |
| 2026-04-23 18:33 | 60.02219 | 19.83104 | 28189 ft | 418 kts | 66° |
| 2026-04-23 18:33 | 60.02899 | 19.88777 | 28595 ft | 421 kts | 66° |
| 2026-04-23 18:34 | 60.03580 | 19.94496 | 28992 ft | 424 kts | 67° |
| 2026-04-23 18:34 | 60.04260 | 20.00252 | 29382 ft | 427 kts | 67° |
| 2026-04-23 18:34 | 60.04938 | 20.06039 | 29766 ft | 429 kts | 67° |
| 2026-04-23 18:34 | 60.05621 | 20.11888 | 30121 ft | 432 kts | 67° |
| 2026-04-23 18:35 | 60.06305 | 20.17749 | 30433 ft | 434 kts | 67° |
| 2026-04-23 18:35 | 60.06994 | 20.23653 | 30751 ft | 436 kts | 67° |
| 2026-04-23 18:35 | 60.07685 | 20.29597 | 30923 ft | 437 kts | 67° |
| 2026-04-23 18:35 | 60.08352 | 20.35447 | 30981 ft | 421 kts | 66° |
| 2026-04-23 18:36 | 60.08978 | 20.41053 | 30955 ft | 408 kts | 66° |
| 2026-04-23 18:36 | 60.10215 | 20.51951 | 30956 ft | 401 kts | 66° |
| 2026-04-23 18:37 | 60.11471 | 20.62898 | 30956 ft | 400 kts | 66° |
| 2026-04-23 18:37 | 60.12705 | 20.73822 | 30956 ft | 401 kts | 66° |
| 2026-04-23 18:38 | 60.13917 | 20.84740 | 30954 ft | 401 kts | 66° |
| 2026-04-23 18:38 | 60.15112 | 20.95588 | 30953 ft | 401 kts | 66° |
| 2026-04-23 18:39 | 60.16305 | 21.06535 | 30796 ft | 404 kts | 69° |
| 2026-04-23 18:39 | 60.16563 | 21.12254 | 30593 ft | 414 kts | 76° |
| 2026-04-23 18:39 | 60.16711 | 21.18024 | 30363 ft | 411 kts | 76° |
| 2026-04-23 18:39 | 60.16850 | 21.23747 | 30120 ft | 409 kts | 76° |
| 2026-04-23 18:40 | 60.16982 | 21.29441 | 29847 ft | 408 kts | 76° |
| 2026-04-23 18:40 | 60.17111 | 21.35141 | 29562 ft | 406 kts | 76° |
| 2026-04-23 18:40 | 60.17236 | 21.40703 | 29284 ft | 404 kts | 76° |
| 2026-04-23 18:40 | 60.17361 | 21.46338 | 29012 ft | 402 kts | 76° |
| 2026-04-23 18:41 | 60.17484 | 21.51952 | 28759 ft | 401 kts | 76° |
| 2026-04-23 18:41 | 60.17605 | 21.57538 | 28482 ft | 400 kts | 75° |
| 2026-04-23 18:41 | 60.17723 | 21.63112 | 28207 ft | 399 kts | 76° |
| 2026-04-23 18:41 | 60.17838 | 21.68673 | 27943 ft | 397 kts | 76° |
| 2026-04-23 18:42 | 60.17949 | 21.74211 | 27676 ft | 396 kts | 76° |
| 2026-04-23 18:42 | 60.18058 | 21.79723 | 27413 ft | 394 kts | 76° |
| 2026-04-23 18:42 | 60.18166 | 21.85221 | 27150 ft | 393 kts | 76° |
| 2026-04-23 18:42 | 60.18269 | 21.90698 | 26948 ft | 390 kts | 75° |
| 2026-04-23 18:43 | 60.18367 | 21.96139 | 26691 ft | 388 kts | 75° |
| 2026-04-23 18:43 | 60.18464 | 22.01552 | 26438 ft | 387 kts | 76° |
| 2026-04-23 18:43 | 60.18557 | 22.06867 | 26186 ft | 383 kts | 76° |
| 2026-04-23 18:43 | 60.18645 | 22.12189 | 25777 ft | 380 kts | 76° |
| 2026-04-23 18:44 | 60.18734 | 22.17482 | 25339 ft | 377 kts | 76° |
| 2026-04-23 18:44 | 60.18824 | 22.22729 | 24911 ft | 374 kts | 76° |
| 2026-04-23 18:44 | 60.18911 | 22.27939 | 24468 ft | 372 kts | 76° |
| 2026-04-23 18:44 | 60.18994 | 22.33131 | 24030 ft | 370 kts | 76° |
| 2026-04-23 18:45 | 60.19075 | 22.38277 | 23578 ft | 369 kts | 76° |
| 2026-04-23 18:45 | 60.19152 | 22.43416 | 23069 ft | 367 kts | 76° |
| 2026-04-23 18:45 | 60.19224 | 22.48535 | 22603 ft | 364 kts | 76° |
| 2026-04-23 18:45 | 60.19293 | 22.53581 | 22160 ft | 360 kts | 76° |
| 2026-04-23 18:46 | 60.19361 | 22.58599 | 21771 ft | 358 kts | 76° |
| 2026-04-23 18:46 | 60.19429 | 22.63615 | 21274 ft | 357 kts | 77° |
| 2026-04-23 18:46 | 60.19495 | 22.68585 | 20830 ft | 355 kts | 77° |
| 2026-04-23 18:46 | 60.19558 | 22.73478 | 20389 ft | 353 kts | 77° |
| 2026-04-23 18:47 | 60.19621 | 22.78398 | 19952 ft | 351 kts | 77° |
| 2026-04-23 18:47 | 60.19681 | 22.83297 | 19514 ft | 350 kts | 77° |
| 2026-04-23 18:47 | 60.19738 | 22.88185 | 19080 ft | 349 kts | 78° |
| 2026-04-23 18:47 | 60.19792 | 22.93060 | 18653 ft | 349 kts | 78° |
| 2026-04-23 18:48 | 60.19844 | 22.97920 | 18224 ft | 348 kts | 78° |
| 2026-04-23 18:48 | 60.19895 | 23.02783 | 17749 ft | 347 kts | 78° |
| 2026-04-23 18:48 | 60.19945 | 23.07623 | 17328 ft | 345 kts | 78° |
| 2026-04-23 18:48 | 60.19992 | 23.12425 | 16910 ft | 343 kts | 79° |
| 2026-04-23 18:49 | 60.20037 | 23.17206 | 16504 ft | 341 kts | 79° |
| 2026-04-23 18:49 | 60.20080 | 23.21969 | 16086 ft | 340 kts | 79° |
| 2026-04-23 18:49 | 60.20123 | 23.26715 | 15681 ft | 339 kts | 79° |
| 2026-04-23 18:49 | 60.20164 | 23.31438 | 15278 ft | 337 kts | 79° |
| 2026-04-23 18:50 | 60.20190 | 23.34556 | 15023 ft | 337 kts | 80° |
| 2026-04-23 18:50 | 60.20238 | 23.40794 | 14470 ft | 336 kts | 80° |
| 2026-04-23 18:50 | 60.20271 | 23.45501 | 14063 ft | 334 kts | 81° |
| 2026-04-23 18:50 | 60.20303 | 23.50166 | 13653 ft | 333 kts | 81° |
| 2026-04-23 18:51 | 60.20335 | 23.54813 | 13216 ft | 331 kts | 81° |
| 2026-04-23 18:51 | 60.20362 | 23.59420 | 12815 ft | 329 kts | 81° |
| 2026-04-23 18:51 | 60.20386 | 23.64005 | 12391 ft | 326 kts | 82° |
| 2026-04-23 18:51 | 60.20409 | 23.68536 | 11994 ft | 323 kts | 82° |
| 2026-04-23 18:52 | 60.20433 | 23.73047 | 11584 ft | 321 kts | 82° |
| 2026-04-23 18:52 | 60.20457 | 23.77533 | 11177 ft | 319 kts | 82° |
| 2026-04-23 18:52 | 60.20479 | 23.81984 | 10766 ft | 317 kts | 82° |
| 2026-04-23 18:52 | 60.20498 | 23.86372 | 10359 ft | 316 kts | 83° |
| 2026-04-23 18:53 | 60.20515 | 23.90773 | 9975 ft | 313 kts | 83° |
| 2026-04-23 18:53 | 60.20531 | 23.95119 | 9853 ft | 309 kts | 83° |
| 2026-04-23 18:53 | 60.20545 | 23.99411 | 9488 ft | 308 kts | 83° |
| 2026-04-23 18:53 | 60.20557 | 24.03686 | 9143 ft | 302 kts | 83° |
| 2026-04-23 18:54 | 60.20567 | 24.07953 | 8533 ft | 307 kts | 84° |
| 2026-04-23 18:54 | 60.20575 | 24.12175 | 8311 ft | 297 kts | 84° |
| 2026-04-23 18:54 | 60.20582 | 24.16291 | 7938 ft | 293 kts | 84° |
| 2026-04-23 18:54 | 60.20588 | 24.20357 | 7459 ft | 289 kts | 85° |
| 2026-04-23 18:55 | 60.20592 | 24.24345 | 7175 ft | 278 kts | 85° |
| 2026-04-23 18:55 | 60.20593 | 24.28106 | 7021 ft | 262 kts | 85° |
| 2026-04-23 18:55 | 60.20594 | 24.31710 | 6693 ft | 255 kts | 85° |
| 2026-04-23 18:55 | 60.20599 | 24.35206 | 6279 ft | 252 kts | 85° |
| 2026-04-23 18:56 | 60.20601 | 24.37583 | 5963 ft | 251 kts | 85° |
| 2026-04-23 18:56 | 60.20606 | 24.42198 | 5193 ft | 251 kts | 86° |
| 2026-04-23 18:56 | 60.20612 | 24.45753 | 4485 ft | 258 kts | 86° |
| 2026-04-23 18:56 | 60.20615 | 24.49375 | 3883 ft | 256 kts | 86° |
| 2026-04-23 18:57 | 60.20606 | 24.52854 | 3681 ft | 246 kts | 87° |
| 2026-04-23 18:57 | 60.20597 | 24.56284 | 3559 ft | 244 kts | 87° |
| 2026-04-23 18:57 | 60.20592 | 24.59696 | 3446 ft | 243 kts | 87° |
| 2026-04-23 18:57 | 60.20585 | 24.63074 | 3332 ft | 237 kts | 87° |
| 2026-04-23 18:58 | 60.20774 | 24.66244 | 3244 ft | 219 kts | 68° |
| 2026-04-23 18:58 | 60.21457 | 24.68862 | 3046 ft | 208 kts | 47° |
| 2026-04-23 18:58 | 60.22419 | 24.70999 | 2797 ft | 205 kts | 43° |
| 2026-04-23 18:58 | 60.23388 | 24.73100 | 2517 ft | 204 kts | 43° |
| 2026-04-23 18:59 | 60.24351 | 24.75195 | 2236 ft | 204 kts | 44° |
| 2026-04-23 18:59 | 60.25302 | 24.77270 | 1946 ft | 197 kts | 44° |
| 2026-04-23 18:59 | 60.26199 | 24.79231 | 1685 ft | 186 kts | 44° |
| 2026-04-23 18:59 | 60.27055 | 24.81103 | 1464 ft | 177 kts | 44° |
| 2026-04-23 19:00 | 60.27856 | 24.82854 | 1188 ft | 166 kts | 44° |
| 2026-04-23 19:00 | 60.28598 | 24.84481 | 961 ft | 148 kts | 45° |
| 2026-04-23 19:00 | 60.29262 | 24.85934 | 765 ft | 135 kts | 45° |
| 2026-04-23 19:00 | 60.29886 | 24.87301 | 587 ft | 131 kts | 45° |
| 2026-04-23 19:01 | 60.30500 | 24.88647 | 411 ft | 130 kts | 44° |
| 2026-04-23 19:01 | 60.31110 | 24.89987 | 246 ft | 129 kts | 44° |
| 2026-04-23 19:01 | 60.31703 | 24.91284 | 148 ft | 115 kts | 45° |
| 2026-04-23 19:01 | 60.32146 | 24.92244 | 161 ft | 69 kts | 48° |
| 2026-04-23 19:02 | 60.32301 | 24.92592 | 169 ft | 32 kts | 48° |
| 2026-04-23 19:02 | 60.32433 | 24.93023 | 174 ft | 26 kts | 73° |
| 2026-04-23 19:02 | 60.32474 | 24.93361 | 174 ft | 23 kts | 77° |
| 2026-04-23 19:02 | 60.32499 | 24.93586 | 172 ft | 15 kts | 77° |
| 2026-04-23 19:03 | 60.32524 | 24.93811 | 171 ft | 18 kts | 77° |
| 2026-04-23 19:03 | 60.32587 | 24.94026 | 171 ft | 18 kts | 47° |
| 2026-04-23 19:03 | 60.32673 | 24.94213 | 172 ft | 19 kts | 47° |
| 2026-04-23 19:03 | 60.32763 | 24.94413 | 173 ft | 19 kts | 48° |
| 2026-04-23 19:04 | 60.32855 | 24.94613 | 174 ft | 20 kts | 46° |
| 2026-04-23 19:04 | 60.32927 | 24.94810 | 177 ft | 14 kts | 93° |
| 2026-04-23 19:04 | 60.32854 | 24.94939 | 175 ft | 16 kts | 162° |
| 2026-04-23 19:04 | 60.32751 | 24.95007 | 178 ft | 15 kts | 161° |
| 2026-04-23 19:05 | 60.32653 | 24.95070 | 180 ft | 14 kts | 162° |
| 2026-04-23 19:05 | 60.32555 | 24.95134 | 180 ft | 16 kts | 162° |
| 2026-04-23 19:05 | 60.32443 | 24.95208 | 179 ft | 18 kts | 161° |
| 2026-04-23 19:05 | 60.32319 | 24.95308 | 176 ft | 20 kts | 142° |
| 2026-04-23 19:06 | 60.32218 | 24.95493 | 174 ft | 17 kts | 137° |
| 2026-04-23 19:06 | 60.32167 | 24.95587 | 173 ft | 1 kts | 137° |
| 2026-04-23 19:06 | 60.32163 | 24.95595 | 173 ft | 0 kts | 137° |
| 2026-04-23 19:06 | 60.32162 | 24.95597 | 173 ft | 0 kts | 137° |
| 2026-04-23 19:07 | 60.32155 | 24.95610 | 173 ft | 4 kts | 137° |
| 2026-04-23 19:07 | 60.32114 | 24.95686 | 173 ft | 11 kts | 137° |
| 2026-04-23 19:07 | 60.32052 | 24.95801 | 174 ft | 14 kts | 137° |
| 2026-04-23 19:08 | 60.31993 | 24.95910 | 172 ft | 9 kts | 137° |
| 2026-04-23 19:08 | 60.31972 | 24.95948 | 170 ft | 0 kts | 137° |
| 2026-04-23 19:08 | 60.31959 | 24.95974 | 170 ft | 5 kts | 137° |
| 2026-04-23 19:08 | 60.31922 | 24.96041 | 168 ft | 9 kts | 138° |
| 2026-04-23 19:09 | 60.31867 | 24.96148 | 164 ft | 12 kts | 126° |
| 2026-04-23 19:09 | 60.31857 | 24.96310 | 163 ft | 12 kts | 74° |
| 2026-04-23 19:09 | 60.31909 | 24.96442 | 163 ft | 12 kts | 47° |
| 2026-04-23 19:09 | 60.31967 | 24.96569 | 163 ft | 9 kts | 47° |
| 2026-04-23 19:10 | 60.31966 | 24.96642 | 163 ft | 6 kts | 140° |
| 2026-04-23 19:10 | 60.31944 | 24.96683 | 163 ft | 2 kts | 137° |
| 2026-04-23 19:10 | 60.31941 | 24.96687 | 163 ft | 0 kts | 137° |